• Join FlightAware (Why Join?)
  • Login
  • US Flag 
01:20PM EDT


 

Airport Tracker/Info


-or-


 

Live Flight TrackerFlight Track Log ✈ AIE863 ✈ 18-May-2013 ✈ CYVP - CYGL

Flight Track Log - Related Links

Times and Time Zones

All times are in EDT time to prevent confusion due to time zone crossing. See the AIE863 flight status page for this flight to view local times or setup timezone preferences in your user account.

Time Position Orientation Groundspeed Altitude Reporting Facility
EDT Latitude Longitude Course Direction KTS MPH feet Rate Location/Type
07:04PM 58.1000 -68.4167 208° Southwest 120 138 700  Level Montreal Center
07:05PM 58.0667 -68.4500 208° Southwest 160 184 2,700 2,160 Climbing Montreal Center
07:06PM 58.0333 -68.5167 227° Southwest 170 196 5,100 2,280 Climbing Montreal Center
07:07PM 58.0167 -68.5833 245° Southwest 170 196 7,300 2,280 Climbing Montreal Center
07:08PM 57.9833 -68.6833 238° Southwest 180 207 9,700 2,160 Climbing Montreal Center
07:09PM 57.9500 -68.7667 233° Southwest 180 207 11,700 1,800 Climbing Montreal Center
07:10PM 57.9167 -68.8333 227° Southwest 180 207 13,300 1,560 Climbing Montreal Center
07:11PM 57.9000 -68.9333 253° West 190 219 14,900 1,500 Climbing Montreal Center
07:12PM 57.8500 -69.0000 215° Southwest 200 230 16,400 1,380 Climbing Montreal Center
07:13PM 57.8167 -69.0667 227° Southwest 200 230 17,700 1,080 Climbing Montreal Center
07:14PM 57.7833 -69.1667 238° Southwest 200 230 18,600 1,080 Climbing Montreal Center
07:15PM 57.7500 -69.2333 227° Southwest 210 242 19,900 1,200 Climbing Montreal Center
07:16PM 57.7167 -69.3500 242° Southwest 200 230 21,100 1,020 Climbing Montreal Center
07:17PM 57.6833 -69.4167 227° Southwest 210 242 22,000 1,020 Climbing Montreal Center
07:18PM 57.6333 -69.5167 227° Southwest 210 242 23,200 960 Climbing Montreal Center
07:19PM 57.6167 -69.6167 253° West 210 242 24,000 360 Climbing Montreal Center
07:20PM 57.5667 -69.7167 227° Southwest 230 265 24,000  Level Montreal Center
07:21PM 57.5167 -69.8167 227° Southwest 260 299 24,000  Level Montreal Center
07:22PM 57.4667 -69.9167 227° Southwest 260 299 24,000  Level Montreal Center
07:23PM 57.4500 -70.0167 253° West 250 288 24,000  Level Montreal Center
07:24PM 57.4000 -70.1167 227° Southwest 250 288 24,000  Level Montreal Center
07:25PM 57.3500 -70.2167 227° Southwest 240 276 24,000  Level Montreal Center
07:26PM 57.3000 -70.3167 227° Southwest 240 276 24,000  Level Montreal Center
07:27PM 57.2500 -70.4167 227° Southwest 250 288 24,000  Level Montreal Center
07:28PM 57.2333 -70.5167 253° West 250 288 24,000  Level Montreal Center
07:29PM 57.1833 -70.6167 227° Southwest 240 276 24,000  Level Montreal Center
07:30PM 57.1333 -70.7167 227° Southwest 240 276 24,000  Level Montreal Center
07:31PM 57.1000 -70.8167 238° Southwest 240 276 24,000  Level Montreal Center
07:32PM 57.0667 -70.9167 239° Southwest 240 276 24,000  Level Montreal Center
07:33PM 57.0167 -71.0167 227° Southwest 250 288 24,000  Level Montreal Center
07:34PM 56.9667 -71.1167 227° Southwest 240 276 24,000  Level Montreal Center
07:35PM 56.9167 -71.2167 228° Southwest 250 288 24,000  Level Montreal Center
07:37PM 56.8590 -71.3469 231° Southwest  Level FlightAware Approximate
07:37PM 56.8500 -71.4000 231° Southwest 250 288 24,000  Level Montreal Center
07:38PM 56.8000 -71.5000 228° Southwest 250 288 24,000  Level Montreal Center
07:39PM 56.7500 -71.6000 228° Southwest 250 288 24,000  Level Montreal Center
07:40PM 56.7000 -71.7000 228° Southwest 250 288 24,000  Level Montreal Center
07:41PM 56.6667 -71.8000 239° Southwest 250 288 24,000  Level Montreal Center
07:42PM 56.6167 -71.9000 228° Southwest 250 288 24,000  Level Montreal Center
07:43PM 56.5833 -71.9833 234° Southwest 250 288 24,000  Level Montreal Center
07:44PM 56.5333 -72.0833 228° Southwest 240 276 24,000  Level Montreal Center
07:45PM 56.5000 -72.1833 239° Southwest 250 288 24,000  Level Montreal Center
07:46PM 56.4500 -72.2833 228° Southwest 250 288 24,000  Level Montreal Center
07:47PM 56.4000 -72.3667 223° Southwest 250 288 24,000  Level Montreal Center
07:48PM 56.3500 -72.4667 228° Southwest 250 288 24,000  Level Montreal Center
07:49PM 56.3000 -72.5667 228° Southwest 250 288 24,000  Level Montreal Center
07:50PM 56.2500 -72.6667 228° Southwest 250 288 24,000  Level Montreal Center
07:51PM 56.2167 -72.7500 234° Southwest 250 288 24,000  Level Montreal Center
07:52PM 56.1667 -72.8500 228° Southwest 250 288 24,000  Level Montreal Center
07:53PM 56.1333 -72.9333 234° Southwest 250 288 24,000  Level Montreal Center
07:54PM 56.0833 -73.0333 228° Southwest 250 288 24,000  Level Montreal Center
07:55PM 56.0333 -73.1333 228° Southwest 250 288 24,000  Level Montreal Center
07:56PM 55.9833 -73.2167 223° Southwest 240 276 24,000  Level Montreal Center
07:57PM 55.9333 -73.3167 228° Southwest 250 288 24,000  Level Montreal Center
07:58PM 55.8833 -73.4333 233° Southwest 250 288 24,000  Level Montreal Center
07:59PM 55.8500 -73.5333 239° Southwest 250 288 24,000  Level Montreal Center
08:00PM 55.8167 -73.6333 239° Southwest 250 288 24,000  Level Montreal Center
08:01PM 55.7667 -73.7167 223° Southwest 250 288 24,000  Level Montreal Center
08:02PM 55.7167 -73.8167 228° Southwest 250 288 24,000  Level Montreal Center
08:03PM 55.6667 -73.9000 223° Southwest 250 288 24,000  Level Montreal Center
08:04PM 55.6167 -74.0000 229° Southwest 250 288 24,000  Level Montreal Center
08:05PM 55.5667 -74.0833 223° Southwest 250 288 24,000  Level Montreal Center
08:06PM 55.5333 -74.1833 240° Southwest 250 288 24,000  Level Montreal Center
08:07PM 55.4833 -74.2667 223° Southwest 240 276 24,000  Level Montreal Center
08:08PM 55.4333 -74.3667 229° Southwest 240 276 24,000  Level Montreal Center
08:09PM 55.3833 -74.4500 223° Southwest 240 276 24,000  Level Montreal Center
08:10PM 55.3500 -74.5333 235° Southwest 250 288 24,000  Level Montreal Center
08:11PM 55.3000 -74.6333 229° Southwest 240 276 24,000  Level Montreal Center
08:12PM 55.2500 -74.7167 224° Southwest 250 288 24,000  Level Montreal Center
08:13PM 55.2000 -74.8167 229° Southwest 230 265 24,000  Level Montreal Center
08:14PM 55.1667 -74.9000 235° Southwest 250 288 24,000  Level Montreal Center
08:15PM 55.1167 -74.9667 217° Southwest 230 265 24,000  Level Montreal Center
08:16PM 55.0667 -75.0833 233° Southwest 240 276 24,000  Level Montreal Center
08:17PM 55.0167 -75.1333 210° Southwest 230 265 24,000  Level Montreal Center
08:18PM 54.9833 -75.2333 240° Southwest 240 276 24,000  Level Montreal Center
08:19PM 54.9333 -75.3167 224° Southwest 240 276 24,000  Level Montreal Center
08:20PM 54.8833 -75.4000 224° Southwest 240 276 24,000  Level Montreal Center
08:21PM 54.8500 -75.5000 240° Southwest 240 276 24,000  Level Montreal Center
08:22PM 54.8000 -75.5833 224° Southwest 240 276 24,000  Level Montreal Center
08:23PM 54.7500 -75.6667 224° Southwest 240 276 24,000  Level Montreal Center
08:24PM 54.7167 -75.7667 240° Southwest 240 276 24,000 -600 Level Montreal Center
08:25PM 54.6667 -75.8500 224° Southwest 250 288 22,900 -1,140 Descending Montreal Center
08:26PM 54.6167 -75.9333 224° Southwest 270 311 21,800 -1,200 Descending Montreal Center
08:27PM 54.5500 -76.0500 225° Southwest 280 322 20,600 -1,200 Descending Montreal Center
08:28PM 54.5000 -76.1333 224° Southwest 290 334 19,500 -1,200 Descending Montreal Center
08:29PM 54.4500 -76.2500 234° Southwest 290 334 18,300 -1,140 Descending Montreal Center
08:30PM 54.4000 -76.3333 224° Southwest 280 322 17,300 -1,200 Descending Montreal Center
08:31PM 54.3333 -76.4500 226° Southwest 290 334 15,900 -1,260 Descending Montreal Center
08:32PM 54.2833 -76.5333 224° Southwest 280 322 14,800 -1,140 Descending Montreal Center
08:33PM 54.2333 -76.6333 229° Southwest 270 311 13,700 -1,140 Descending Montreal Center
08:34PM 54.1833 -76.7167 224° Southwest 270 311 12,600 -1,080 Descending Montreal Center
08:35PM 54.1333 -76.8333 234° Southwest 260 299 11,600 -1,020 Descending Montreal Center
08:36PM 54.0833 -76.9167 224° Southwest 260 299 10,600 -1,080 Descending Montreal Center
08:37PM 54.0333 -77.0000 224° Southwest 260 299 9,500 -1,080 Descending Montreal Center
08:38PM 53.9833 -77.0833 224° Southwest 260 299 8,500 -1,080 Descending Montreal Center
08:39PM 53.9167 -77.1667 216° Southwest 260 299 7,400 -1,080 Descending Montreal Center
08:40PM 53.8667 -77.2500 225° Southwest 250 288 6,400 -900 Descending Montreal Center
08:41PM 53.8333 -77.3333 236° Southwest 250 288 5,600 -1,020 Descending Montreal Center
08:42PM 53.8000 -77.4500 244° Southwest 250 288 4,400 -1,380 Descending Montreal Center
08:43PM 53.7833 -77.5667 256° West 250 288 2,900 -1,080 Descending Montreal Center
08:44PM 53.7333 -77.6500 225° Southwest 220 253 2,300 -480 Descending Montreal Center
08:45PM 53.7000 -77.7000 222° Southwest 200 230 2,000 -300 Descending Montreal Center
08:47PM 53.6253 -77.7042 225° Southwest  Level Estimated